x

Halibut Bank (46146) Wave Buoy

4:00pm - Thu 18th Dec 2014 All times are PST. -8 hours from GMT.

  • Sig Wave height 2.3ft
  • Peak Period 4s
  • Wind
    22mph, 29mph gusts
  • Sea Temp 47°f
  • Air Temp 48°f
  • Sea Pressure 1005.3mb
  • Halibut Bank
  • Halibut Bank

More Historic Weather Station data

Upgrade to MSW Pro to gain access to the past 30 days of data for over 8000 Wavebouys and Weather Stations around the globe.

Join Pro

Comparision Forecast

View Surf forecast
   
Thu 12/18 4:00pm 2.5ft 4s 22 29 mph 1005.3mb 47f 48f
3:00pm 2.5ft 3s 22 27 mph 1006.1mb 46f 47f
2:00pm 2ft 4s 20 25 mph 1007.2mb 46f 47f
1:00pm 2ft 4s 20 22 mph 1008.2mb 46f 47f
12:00pm 2ft 3s 20 22 mph 1009.5mb 46f 47f
11:00am 2ft 3s 20 25 mph 1010.4mb 46f 46f
10:00am 2ft 3s 18 22 mph 1011.7mb 46f 46f
9:00am 1.6ft 3s 20 22 mph 1012mb 46f 45f
8:00am 1.3ft 3s 18 22 mph 1011.9mb 46f 46f
7:00am 1ft 3s 16 18 mph 1011.9mb 46f 45f
6:00am 0.7ft 2s 11 13 mph 1012.6mb 46f 45f
5:00am 0.7ft 3s 13
mph
1012.8mb 46f 45f
4:00am 0.7ft 2s 13 16 mph 1012.7mb 46f 45f
3:00am 0.7ft 2s 11
mph
1012.9mb 46f 45f
2:00am 0.7ft 2s 9 11 mph 1013.1mb 46f 45f
1:00am 0.7ft 3s 9 13 mph 1012.8mb 46f 45f
12:00am 0.7ft 2s 9 11 mph 1012.9mb 46f 45f
Wed 12/17 11:00pm 0.7ft 2s 9 11 mph 1012.9mb 46f 45f
10:00pm 0.3ft 2s 9 11 mph 1012.8mb 46f 45f
9:00pm 0.7ft 7s 9 11 mph 1012.8mb 46f 45f
8:00pm 0.7ft 3s 9
mph
1012.7mb 46f 46f
7:00pm 0.7ft 2s 11 13 mph 1012.4mb 46f 45f
6:00pm 0.3ft 3s 7 9 mph 1012.4mb 46f 46f
5:00pm 0.7ft 3s 4 7 mph 1012.2mb 46f 46f
4:00pm 0.7ft 3s 9
mph
1011.3mb 46f 46f
3:00pm 0.7ft 2s 7 9 mph 1010.8mb 46f 46f
2:00pm 0.7ft 2s 11 13 mph 1010.6mb 46f 46f
1:00pm 0.7ft 2s 9 11 mph 1010.4mb 46f 47f
12:00pm 0.7ft 2s 9
mph
1010.5mb 46f 46f
11:00am 0.3ft 2s 11 13 mph 1010.9mb 46f 46f
10:00am 0.7ft 3s 4 7 mph 1011mb 46f 45f
9:00am 0.7ft 2s 4
mph
1010.8mb 46f 45f
8:00am 0.7ft 3s 7 9 mph 1010.3mb 46f 46f
7:00am 0.7ft 3s 7 9 mph 1009.8mb 46f 45f
6:00am 0.7ft 3s 4 7 mph 1009.5mb 46f 46f
5:00am 0.7ft 3s 7 9 mph 1009.2mb 46f 46f
4:00am 1ft 2s 9 11 mph 1009.4mb 46f 46f
3:00am 1ft 3s 16 18 mph 1009.3mb 46f 46f
2:00am 1ft 2s 13
mph
1009.5mb 46f 46f
1:00am 0.7ft 4s 13
mph
1009.5mb 46f 46f
12:00am 1ft 3s 11 13 mph 1009.9mb 46f 46f
Tue 12/16 11:00pm 1.3ft 3s 9 11 mph 1010mb 46f 47f
10:00pm 1.3ft 3s 13 18 mph 1010.2mb 46f 47f
9:00pm 1.6ft 3s 13 16 mph 1010.3mb 46f 47f
8:00pm 1.3ft 3s 16 18 mph 1010.4mb 46f 47f
7:00pm 1.6ft 3s 13 18 mph 1010.6mb 46f 46f
6:00pm 1.3ft 3s 16 18 mph 1010.8mb 46f 46f
5:00pm 1.3ft 3s 13 18 mph 1010.8mb 46f 47f
4:00pm 1.3ft 3s 13 18 mph 1010.8mb 47f 47f
3:00pm 1.3ft 3s 16 18 mph 1010.4mb 46f 47f
2:00pm 1.3ft 3s 18 20 mph 1010mb 47f 46f
1:00pm 1ft 3s 13 16 mph 1010mb 47f 47f
12:00pm 1.3ft 3s 13 16 mph 1010.2mb 47f 47f
11:00am 1.3ft 3s 13 18 mph 1010.4mb 46f 46f
10:00am 1ft 3s 13 16 mph 1010.8mb 46f 46f
9:00am 0.7ft 2s 13 16 mph 1010.9mb 45f 46f
8:00am 0.7ft 4s 4 7 mph 1010.9mb 44f 44f
7:00am 0.3ft 2s 11 13 mph 1010.3mb 44f 45f
6:00am 0.3ft 3s 2 4 mph 1010.2mb 44f 44f
5:00am 0.3ft 3s 9
mph
1010.2mb 45f 44f
4:00am 0.3ft 3s 2 4 mph 1010.9mb 45f 43f
3:00am 0.3ft 2s 7 9 mph 1011mb 44f 44f
2:00am 0.3ft 2s 4
mph
1011mb 44f 44f
1:00am 0.3ft 3s 4 7 mph 1010.7mb 44f 44f
12:00am 0.3ft 2s 7 9 mph 1010.8mb 44f 43f
Mon 12/15 11:00pm 0.3ft 3s 2 4 mph 1011.1mb 44f 44f
10:00pm 0.3ft 4s 4 7 mph 1011.2mb 44f 44f
9:00pm 0.7ft 4s 2
mph
1011.1mb 44f 44f
8:00pm 0.3ft 3s 4 7 mph 1011.1mb 44f 44f
7:00pm 0.3ft 4s 7 9 mph 1011.7mb 44f 43f
6:00pm 0.7ft 4s 7 9 mph 1011.6mb 44f 43f
5:00pm 0.7ft 4s 7
mph
1011.9mb 46f 43f
4:00pm 0.7ft 3s 7 9 mph 1012.1mb 46f 43f
3:00pm 1ft 4s 2
mph
1012.3mb 46f 45f
2:00pm 1ft 3s 9 11 mph 1012.4mb 45f 44f
1:00pm 0.7ft 3s 9 13 mph 1012.6mb 46f 44f
12:00pm 1ft 4s 4 9 mph 1012.9mb 45f 44f
11:00am 1ft 3s 13 16 mph 1013.7mb 45f 44f
10:00am 1ft 3s 9 11 mph 1014.4mb 45f 44f
9:00am 1ft 5s 11 13 mph 1014.2mb 46f 42f
8:00am 1ft 4s 11 13 mph 1014.3mb 46f 44f
7:00am 1ft 4s 4 11 mph 1014.4mb 46f 42f
6:00am 1ft 4s 4 7 mph 1014.6mb 46f 41f
5:00am 0.7ft 2s 4 7 mph 1014.5mb 46f 41f
4:00am 0.7ft 2s 2 4 mph 1014.7mb 46f 42f
3:00am 0.7ft 2s 4 7 mph 1015.4mb 46f 43f
2:00am 1ft 3s 11 13 mph 1015.6mb 46f 44f